Time;durP1;ratioP1;P1;durP2;ratioP2;P2;SDS_P1;SDS_P2;PMS_P1;PMS_P2;Temp;Humidity;BMP_temperature;BMP_pressure;BME280_temperature;BME280_humidity;BME280_pressure;Samples;Min_cycle;Max_cycle;Signal;HPM_P1;HPM_P2
2023/06/07 00:00:10;;;;;;;6.70;5.40;;;;;;;;;;5019847;28;20063;-73
2023/06/07 00:02:40;;;;;;;6.32;5.63;;;;;;;;;;5023051;28;20049;-72
2023/06/07 00:05:06;;;;;;;8.45;5.90;;;;;;;;;;5021426;28;20045;-73
2023/06/07 00:07:32;;;;;;;5.82;5.25;;;;;;;;;;5024111;28;20410;-73
2023/06/07 00:09:59;;;;;;;8.02;5.45;;;;;;;;;;5024361;28;20874;-73
2023/06/07 00:12:25;;;;;;;6.82;5.93;;;;;;;;;;5023260;28;20132;-72
2023/06/07 00:14:51;;;;;;;9.00;6.15;;;;;;;;;;5025283;28;20068;-72
2023/06/07 00:17:16;;;;;;;9.90;5.38;;;;;;;;;;5007380;28;20126;-72
2023/06/07 00:19:42;;;;;;;7.60;5.22;;;;;;;;;;5025425;28;20045;-73
2023/06/07 00:22:08;;;;;;;7.05;5.35;;;;;;;;;;5023202;28;20427;-72
2023/06/07 00:24:34;;;;;;;7.55;5.18;;;;;;;;;;5030690;28;20108;-73
2023/06/07 00:26:59;;;;;;;6.10;5.45;;;;;;;;;;5025570;28;20498;-73
2023/06/07 00:29:25;;;;;;;6.57;5.90;;;;;;;;;;5025304;28;20413;-73
2023/06/07 00:31:51;;;;;;;6.90;5.85;;;;;;;;;;5024844;28;20497;-72
2023/06/07 00:34:16;;;;;;;7.78;5.68;;;;;;;;;;5005907;28;20054;-73
2023/06/07 00:36:42;;;;;;;9.27;6.45;;;;;;;;;;5025268;28;20049;-72
2023/06/07 00:39:07;;;;;;;6.93;5.70;;;;;;;;;;5040896;28;20053;-73
2023/06/07 00:41:33;;;;;;;10.55;6.50;;;;;;;;;;5024574;28;20103;-72
2023/06/07 00:44:02;;;;;;;6.80;6.03;;;;;;;;;;5023407;28;20041;-73
2023/06/07 00:46:29;;;;;;;6.20;5.60;;;;;;;;;;5023233;28;20060;-73
2023/06/07 00:48:56;;;;;;;8.23;6.28;;;;;;;;;;4997795;28;20501;-73
2023/06/07 00:51:23;;;;;;;7.00;5.78;;;;;;;;;;5023895;28;20125;-73
2023/06/07 00:53:51;;;;;;;9.18;6.25;;;;;;;;;;5025541;28;20418;-73
2023/06/07 00:56:17;;;;;;;8.30;5.93;;;;;;;;;;5024259;28;20037;-73
2023/06/07 00:58:46;;;;;;;8.10;5.70;;;;;;;;;;5015731;28;20044;-72
2023/06/07 01:01:12;;;;;;;8.65;5.50;;;;;;;;;;5017395;28;20440;-73
2023/06/07 01:03:38;;;;;;;9.13;6.00;;;;;;;;;;5030644;28;20107;-73
2023/06/07 01:06:05;;;;;;;7.50;6.45;;;;;;;;;;5006317;28;20053;-73
2023/06/07 01:08:32;;;;;;;8.98;6.90;;;;;;;;;;5023056;28;20107;-72
2023/06/07 01:10:59;;;;;;;8.90;6.10;;;;;;;;;;5021139;28;20064;-73
2023/06/07 01:13:25;;;;;;;6.88;6.13;;;;;;;;;;5037216;28;20045;-73
2023/06/07 01:15:51;;;;;;;9.23;6.75;;;;;;;;;;5022332;28;20059;-72
2023/06/07 01:18:18;;;;;;;8.10;6.72;;;;;;;;;;5020852;28;20053;-73
2023/06/07 01:20:50;;;;;;;9.68;6.35;;;;;;;;;;5039324;28;20063;-72
2023/06/07 01:23:27;;;;;;;9.68;6.78;;;;;;;;;;5015214;28;20045;-72
2023/06/07 01:25:53;;;;;;;8.15;6.07;;;;;;;;;;5022961;28;20488;-73
2023/06/07 01:28:19;;;;;;;9.13;5.90;;;;;;;;;;5022228;28;20128;-73
2023/06/07 01:30:46;;;;;;;10.75;6.60;;;;;;;;;;5032456;28;20075;-72
2023/06/07 01:33:12;;;;;;;7.97;5.60;;;;;;;;;;5014114;28;20057;-72
2023/06/07 01:35:39;;;;;;;8.65;6.88;;;;;;;;;;5011444;28;20107;-73
2023/06/07 01:38:05;;;;;;;6.85;6.15;;;;;;;;;;5033828;28;20049;-73
2023/06/07 01:40:38;;;;;;;12.88;7.30;;;;;;;;;;5024009;28;20503;-73
2023/06/07 01:43:04;;;;;;;7.47;6.68;;;;;;;;;;5011053;28;20073;-73
2023/06/07 01:45:31;;;;;;;6.53;5.93;;;;;;;;;;5023155;28;20468;-73
2023/06/07 01:47:57;;;;;;;7.30;6.22;;;;;;;;;;5021710;28;20046;-73
2023/06/07 01:50:22;;;;;;;9.88;6.75;;;;;;;;;;5031038;28;20044;-73
2023/06/07 01:52:48;;;;;;;10.88;7.15;;;;;;;;;;5038577;28;20506;-73
2023/06/07 01:55:15;;;;;;;10.45;7.43;;;;;;;;;;5014467;28;20046;-73
2023/06/07 01:58:20;;;;;;;8.55;7.40;;;;;;;;;;5039315;28;20053;-73
2023/06/07 02:01:01;;;;;;;8.18;6.97;;;;;;;;;;5029593;28;20056;-73
2023/06/07 02:03:33;;;;;;;8.00;6.57;;;;;;;;;;5022181;28;20053;-73
2023/06/07 02:06:02;;;;;;;8.40;7.05;;;;;;;;;;5014474;28;20038;-73
2023/06/07 02:08:34;;;;;;;9.65;6.57;;;;;;;;;;5012127;28;20046;-73
2023/06/07 02:11:02;;;;;;;10.00;7.43;;;;;;;;;;5013732;28;20042;-73
2023/06/07 02:13:32;;;;;;;7.95;6.60;;;;;;;;;;5022374;28;20053;-73
2023/06/07 02:15:58;;;;;;;7.90;6.88;;;;;;;;;;5023891;28;20111;-73
2023/06/07 02:18:24;;;;;;;9.20;6.80;;;;;;;;;;5021647;28;20463;-73
2023/06/07 02:20:52;;;;;;;9.88;7.15;;;;;;;;;;5023946;28;20049;-73
2023/06/07 02:23:19;;;;;;;13.45;7.30;;;;;;;;;;5024552;28;20034;-73
2023/06/07 02:25:44;;;;;;;9.02;7.05;;;;;;;;;;5014671;28;20106;-73
2023/06/07 02:28:10;;;;;;;7.57;6.78;;;;;;;;;;5005636;28;20486;-75
2023/06/07 02:30:35;;;;;;;7.47;6.40;;;;;;;;;;5014648;28;20045;-73
2023/06/07 02:33:02;;;;;;;8.48;6.55;;;;;;;;;;5023184;28;20401;-73
2023/06/07 02:35:28;;;;;;;10.68;7.07;;;;;;;;;;5023349;28;20497;-73
2023/06/07 02:37:53;;;;;;;8.02;6.68;;;;;;;;;;5029064;28;20049;-73
2023/06/07 02:40:19;;;;;;;10.45;6.72;;;;;;;;;;5023905;28;20108;-73
2023/06/07 02:42:48;;;;;;;9.05;7.07;;;;;;;;;;5035055;28;20049;-73
2023/06/07 02:45:14;;;;;;;7.78;6.63;;;;;;;;;;5019578;28;20041;-73
2023/06/07 02:47:40;;;;;;;8.23;7.38;;;;;;;;;;5026857;28;20060;-73
2023/06/07 02:50:06;;;;;;;8.85;7.95;;;;;;;;;;5026359;28;20498;-73
2023/06/07 02:52:33;;;;;;;8.98;6.88;;;;;;;;;;5009981;28;20506;-73
2023/06/07 02:55:00;;;;;;;8.00;6.95;;;;;;;;;;5001375;28;20037;-73
2023/06/07 02:57:26;;;;;;;9.43;7.47;;;;;;;;;;5017616;28;20609;-73
2023/06/07 02:59:53;;;;;;;10.93;7.55;;;;;;;;;;5025665;28;20136;-73
2023/06/07 03:02:22;;;;;;;7.67;6.77;;;;;;;;;;5033825;28;20140;-73
2023/06/07 03:04:50;;;;;;;8.05;7.00;;;;;;;;;;5025627;28;20284;-73
2023/06/07 03:07:20;;;;;;;9.82;8.02;;;;;;;;;;5002368;28;20878;-73
2023/06/07 03:09:47;;;;;;;8.95;7.43;;;;;;;;;;5042112;28;20510;-73
2023/06/07 03:12:14;;;;;;;10.73;7.32;;;;;;;;;;5008964;28;20049;-73
2023/06/07 03:14:45;;;;;;;7.75;7.03;;;;;;;;;;5011100;28;20041;-73
2023/06/07 03:17:12;;;;;;;10.63;8.65;;;;;;;;;;5026844;28;20494;-73
2023/06/07 03:19:40;;;;;;;9.18;8.00;;;;;;;;;;5043271;28;20048;-73
2023/06/07 03:22:06;;;;;;;9.73;7.97;;;;;;;;;;5043238;28;20053;-73
2023/06/07 03:24:36;;;;;;;8.20;6.97;;;;;;;;;;5025898;28;20038;-73
2023/06/07 03:27:03;;;;;;;9.98;7.22;;;;;;;;;;5026245;28;20412;-73
2023/06/07 03:29:30;;;;;;;9.27;6.75;;;;;;;;;;5042350;28;20107;-73
2023/06/07 03:31:56;;;;;;;8.88;6.68;;;;;;;;;;5034764;28;20449;-73
2023/06/07 03:34:22;;;;;;;8.35;6.68;;;;;;;;;;5031114;28;20034;-73
2023/06/07 03:36:48;;;;;;;8.05;6.80;;;;;;;;;;5027028;28;20132;-73
2023/06/07 03:39:16;;;;;;;8.50;5.80;;;;;;;;;;5025770;28;20076;-73
2023/06/07 03:41:41;;;;;;;9.55;6.45;;;;;;;;;;5033261;28;20057;-73
2023/06/07 03:44:08;;;;;;;7.97;6.78;;;;;;;;;;5032798;28;20116;-73
2023/06/07 03:46:37;;;;;;;7.60;5.95;;;;;;;;;;5024858;28;20055;-73
2023/06/07 03:49:02;;;;;;;7.18;6.47;;;;;;;;;;5032168;28;20041;-73
2023/06/07 03:51:30;;;;;;;7.72;6.53;;;;;;;;;;5042028;28;20080;-73
2023/06/07 03:53:59;;;;;;;7.72;6.57;;;;;;;;;;5024191;28;20033;-73
2023/06/07 03:56:25;;;;;;;7.53;6.43;;;;;;;;;;5007172;28;20084;-73
2023/06/07 03:58:53;;;;;;;10.20;6.75;;;;;;;;;;5041847;28;20462;-73
2023/06/07 04:01:21;;;;;;;7.93;7.13;;;;;;;;;;5039584;28;20055;-73
2023/06/07 04:03:47;;;;;;;11.15;6.57;;;;;;;;;;5021365;28;20444;-73
2023/06/07 04:06:14;;;;;;;9.23;7.13;;;;;;;;;;5020197;28;20537;-73
2023/06/07 04:08:39;;;;;;;9.75;7.75;;;;;;;;;;5004296;28;20046;-74
2023/06/07 04:11:06;;;;;;;8.05;7.22;;;;;;;;;;5021365;28;20041;-73
2023/06/07 04:13:31;;;;;;;7.80;7.00;;;;;;;;;;5022885;28;20049;-73
2023/06/07 04:15:57;;;;;;;7.82;6.70;;;;;;;;;;5003846;28;20049;-73
2023/06/07 04:18:22;;;;;;;7.97;6.90;;;;;;;;;;5026381;28;20037;-73
2023/06/07 04:20:50;;;;;;;8.77;7.15;;;;;;;;;;5020975;28;20591;-73
2023/06/07 04:23:16;;;;;;;8.93;6.93;;;;;;;;;;5021159;28;20033;-73
2023/06/07 04:25:43;;;;;;;8.00;6.68;;;;;;;;;;5004818;28;20045;-73
2023/06/07 04:28:10;;;;;;;9.27;7.55;;;;;;;;;;5020070;28;20037;-73
2023/06/07 04:30:40;;;;;;;8.07;6.85;;;;;;;;;;5023835;28;20043;-73
2023/06/07 04:33:10;;;;;;;8.20;7.00;;;;;;;;;;5005165;28;20038;-73
2023/06/07 04:35:42;;;;;;;8.80;7.13;;;;;;;;;;5015472;28;20049;-73
2023/06/07 04:38:11;;;;;;;8.90;7.50;;;;;;;;;;5019527;28;20069;-73
2023/06/07 04:40:40;;;;;;;8.38;7.28;;;;;;;;;;5019926;28;20057;-73
2023/06/07 04:43:08;;;;;;;8.02;6.90;;;;;;;;;;5004025;28;20136;-72
2023/06/07 04:45:40;;;;;;;9.27;7.60;;;;;;;;;;5003543;28;20056;-73
2023/06/07 04:48:11;;;;;;;12.13;6.68;;;;;;;;;;5020158;28;20091;-75
2023/06/07 04:50:41;;;;;;;9.32;7.10;;;;;;;;;;5019056;28;20046;-74
2023/06/07 04:53:10;;;;;;;8.73;7.25;;;;;;;;;;5020155;28;20092;-75
2023/06/07 04:55:38;;;;;;;8.03;6.90;;;;;;;;;;5019628;28;20041;-74
2023/06/07 04:58:06;;;;;;;8.30;6.95;;;;;;;;;;5036096;28;20318;-74
2023/06/07 05:00:34;;;;;;;9.07;6.15;;;;;;;;;;5018500;28;20077;-75
2023/06/07 05:03:08;;;;;;;6.32;5.72;;;;;;;;;;5011316;28;20037;-73
2023/06/07 05:05:36;;;;;;;7.65;5.45;;;;;;;;;;5019550;28;20067;-73
2023/06/07 05:08:05;;;;;;;6.70;5.68;;;;;;;;;;5019617;28;20056;-74
2023/06/07 05:10:30;;;;;;;8.70;4.80;;;;;;;;;;5018374;28;20111;-73
2023/06/07 05:12:59;;;;;;;8.23;5.18;;;;;;;;;;5035984;28;20683;-73
2023/06/07 05:15:26;;;;;;;5.50;4.95;;;;;;;;;;5019226;28;20033;-74
2023/06/07 05:17:53;;;;;;;6.75;5.45;;;;;;;;;;5035848;28;20038;-74
2023/06/07 05:20:20;;;;;;;5.47;4.97;;;;;;;;;;5019016;28;20044;-73
2023/06/07 05:22:46;;;;;;;5.03;4.53;;;;;;;;;;5018555;28;20045;-74
2023/06/07 05:25:12;;;;;;;6.95;4.93;;;;;;;;;;5019833;28;20033;-75
2023/06/07 05:27:38;;;;;;;5.15;4.60;;;;;;;;;;5021129;28;20056;-74
2023/06/07 05:30:06;;;;;;;9.00;5.07;;;;;;;;;;5004466;28;20056;-75
2023/06/07 05:32:33;;;;;;;5.13;4.63;;;;;;;;;;4993284;28;20037;-74
2023/06/07 05:35:01;;;;;;;5.40;4.72;;;;;;;;;;5013970;28;20103;-74
2023/06/07 05:37:31;;;;;;;5.75;4.55;;;;;;;;;;5002978;28;20038;-76
2023/06/07 05:39:57;;;;;;;7.13;4.50;;;;;;;;;;5018988;28;20355;-75
2023/06/07 05:42:22;;;;;;;4.60;4.20;;;;;;;;;;5020039;28;20088;-73
2023/06/07 05:44:49;;;;;;;5.20;4.65;;;;;;;;;;5035048;28;20194;-76
2023/06/07 05:47:15;;;;;;;8.40;4.50;;;;;;;;;;5035299;28;20065;-74
2023/06/07 05:49:43;;;;;;;4.47;4.07;;;;;;;;;;5035138;28;20045;-75
2023/06/07 05:52:09;;;;;;;4.97;4.40;;;;;;;;;;5035484;28;20099;-73
2023/06/07 05:54:34;;;;;;;7.28;4.20;;;;;;;;;;5018097;28;20474;-73
2023/06/07 05:57:01;;;;;;;5.80;4.32;;;;;;;;;;5018603;28;20045;-74
2023/06/07 05:59:26;;;;;;;5.60;4.20;;;;;;;;;;5023329;28;20132;-73
2023/06/07 06:01:52;;;;;;;7.38;3.78;;;;;;;;;;5020131;28;20041;-74
2023/06/07 06:04:18;;;;;;;4.28;3.50;;;;;;;;;;5019609;28;20042;-74
2023/06/07 06:06:43;;;;;;;4.22;3.63;;;;;;;;;;5019433;28;20075;-74
2023/06/07 06:09:09;;;;;;;3.97;3.25;;;;;;;;;;5019315;28;20067;-73
2023/06/07 06:11:35;;;;;;;4.75;3.50;;;;;;;;;;5020872;28;20057;-74
2023/06/07 06:14:01;;;;;;;5.53;3.80;;;;;;;;;;5022536;28;20045;-74
2023/06/07 06:16:26;;;;;;;4.78;3.53;;;;;;;;;;5028045;28;20048;-75
2023/06/07 06:18:51;;;;;;;4.85;3.58;;;;;;;;;;5024944;28;20466;-74
2023/06/07 06:21:17;;;;;;;5.55;3.53;;;;;;;;;;5025302;28;20112;-73
2023/06/07 06:23:42;;;;;;;4.13;3.72;;;;;;;;;;5024197;28;20118;-74
2023/06/07 06:26:08;;;;;;;6.47;3.50;;;;;;;;;;5024528;28;20043;-75
2023/06/07 06:28:33;;;;;;;4.07;3.65;;;;;;;;;;5022548;28;20080;-72
2023/06/07 06:31:01;;;;;;;5.85;3.65;;;;;;;;;;5023008;28;20116;-73
2023/06/07 06:33:26;;;;;;;3.30;3.00;;;;;;;;;;5023746;28;20080;-74
2023/06/07 06:35:53;;;;;;;3.70;3.20;;;;;;;;;;5024049;28;20053;-75
2023/06/07 06:38:19;;;;;;;3.20;2.97;;;;;;;;;;5022710;28;20060;-72
2023/06/07 06:40:45;;;;;;;3.90;3.47;;;;;;;;;;5021943;28;20069;-72
2023/06/07 06:43:11;;;;;;;7.10;3.90;;;;;;;;;;5023910;28;20041;-72
2023/06/07 06:45:45;;;;;;;3.50;2.97;;;;;;;;;;5022190;28;20208;-74
2023/06/07 06:48:10;;;;;;;4.03;3.63;;;;;;;;;;5023823;28;20064;-74
2023/06/07 06:50:36;;;;;;;3.88;3.30;;;;;;;;;;5022048;28;20049;-72
2023/06/07 06:53:02;;;;;;;6.28;3.65;;;;;;;;;;5022194;28;20041;-73
2023/06/07 06:55:28;;;;;;;4.43;3.60;;;;;;;;;;5021755;28;20049;-73
2023/06/07 06:57:54;;;;;;;5.25;3.85;;;;;;;;;;5023063;28;20140;-75
2023/06/07 07:00:21;;;;;;;7.93;3.50;;;;;;;;;;5022207;28;20188;-72
2023/06/07 07:02:47;;;;;;;3.85;3.55;;;;;;;;;;5023108;28;20518;-72
2023/06/07 07:05:13;;;;;;;5.50;3.40;;;;;;;;;;5022037;28;20505;-73
2023/06/07 07:07:39;;;;;;;3.80;3.42;;;;;;;;;;5022858;28;20045;-73
2023/06/07 07:10:05;;;;;;;3.60;3.30;;;;;;;;;;5021655;28;20045;-73
2023/06/07 07:12:31;;;;;;;4.80;3.47;;;;;;;;;;5018962;28;20068;-73
2023/06/07 07:14:56;;;;;;;4.10;3.55;;;;;;;;;;5022265;28;20761;-73
2023/06/07 07:17:22;;;;;;;4.10;3.78;;;;;;;;;;5020629;28;20050;-75
2023/06/07 07:19:47;;;;;;;4.35;3.70;;;;;;;;;;5021918;28;20054;-72
2023/06/07 07:22:12;;;;;;;6.28;3.45;;;;;;;;;;5020794;28;20041;-72
2023/06/07 07:24:38;;;;;;;6.15;3.55;;;;;;;;;;5021744;28;20049;-74
2023/06/07 07:27:05;;;;;;;3.72;3.42;;;;;;;;;;5021815;28;20041;-72
2023/06/07 07:29:30;;;;;;;3.72;3.38;;;;;;;;;;5021577;28;20053;-72
2023/06/07 07:31:56;;;;;;;4.18;3.28;;;;;;;;;;5020558;28;20138;-72
2023/06/07 07:34:21;;;;;;;8.52;3.67;;;;;;;;;;5020451;28;20033;-74
2023/06/07 07:36:47;;;;;;;7.00;3.60;;;;;;;;;;5021746;28;20896;-72
2023/06/07 07:39:15;;;;;;;4.72;3.25;;;;;;;;;;5021344;28;20040;-74
2023/06/07 07:41:41;;;;;;;10.82;3.95;;;;;;;;;;5021472;28;20049;-74
2023/06/07 07:44:06;;;;;;;3.40;3.10;;;;;;;;;;5021874;28;20505;-72
2023/06/07 07:46:32;;;;;;;6.40;3.45;;;;;;;;;;5020049;28;20057;-74
2023/06/07 07:48:57;;;;;;;4.40;3.88;;;;;;;;;;5036530;28;20041;-74
2023/06/07 07:51:23;;;;;;;4.05;3.53;;;;;;;;;;5036694;28;20072;-73
2023/06/07 07:53:52;;;;;;;3.90;3.45;;;;;;;;;;5021606;28;20049;-72
2023/06/07 07:56:17;;;;;;;3.97;3.63;;;;;;;;;;5020588;28;20065;-75
2023/06/07 07:58:44;;;;;;;5.88;3.72;;;;;;;;;;5020748;28;20134;-73
2023/06/07 08:01:10;;;;;;;4.38;3.60;;;;;;;;;;5021198;28;20046;-72
2023/06/07 08:03:36;;;;;;;4.55;3.28;;;;;;;;;;5019881;28;20045;-75
2023/06/07 08:06:01;;;;;;;6.30;3.70;;;;;;;;;;5021486;28;20072;-73
2023/06/07 08:08:28;;;;;;;4.28;3.92;;;;;;;;;;4997921;28;1075922;-73
2023/06/07 08:10:53;;;;;;;5.00;3.72;;;;;;;;;;5021783;28;20988;-75
2023/06/07 08:13:19;;;;;;;5.72;4.35;;;;;;;;;;5022525;28;20045;-73
2023/06/07 08:15:46;;;;;;;4.55;4.15;;;;;;;;;;5022229;28;20056;-73
2023/06/07 08:18:11;;;;;;;4.10;3.72;;;;;;;;;;5021196;28;20695;-74
2023/06/07 08:20:37;;;;;;;6.85;3.63;;;;;;;;;;5023145;28;20065;-73
2023/06/07 08:23:03;;;;;;;5.93;3.80;;;;;;;;;;5021846;28;20041;-72
2023/06/07 08:25:28;;;;;;;4.82;3.80;;;;;;;;;;5021588;28;20045;-74
2023/06/07 08:27:54;;;;;;;4.10;3.28;;;;;;;;;;5021544;28;20107;-75
2023/06/07 08:30:20;;;;;;;5.13;3.17;;;;;;;;;;5019381;28;20045;-72
2023/06/07 08:32:45;;;;;;;4.13;3.55;;;;;;;;;;5021798;28;20045;-73
2023/06/07 08:35:11;;;;;;;3.97;3.58;;;;;;;;;;5021924;28;20059;-73
2023/06/07 08:37:36;;;;;;;4.43;3.22;;;;;;;;;;5021255;28;20052;-75
2023/06/07 08:40:05;;;;;;;4.53;2.70;;;;;;;;;;5020428;28;20053;-71
2023/06/07 08:42:32;;;;;;;3.97;2.88;;;;;;;;;;5021075;28;20107;-73
2023/06/07 08:44:57;;;;;;;2.95;2.70;;;;;;;;;;5021659;28;20498;-73
2023/06/07 08:47:23;;;;;;;5.85;3.13;;;;;;;;;;5021696;28;20049;-72
2023/06/07 08:49:55;;;;;;;4.03;3.15;;;;;;;;;;5021160;28;20370;-74
2023/06/07 08:52:22;;;;;;;3.85;2.40;;;;;;;;;;5019949;28;20045;-74
2023/06/07 08:54:49;;;;;;;2.40;2.20;;;;;;;;;;5021166;28;20163;-76
2023/06/07 08:57:18;;;;;;;2.55;2.35;;;;;;;;;;5021318;28;20045;-76
2023/06/07 08:59:45;;;;;;;3.38;2.45;;;;;;;;;;5020964;28;20111;-73
2023/06/07 09:02:12;;;;;;;4.85;2.92;;;;;;;;;;5020678;28;20138;-75
2023/06/07 09:04:40;;;;;;;4.63;2.85;;;;;;;;;;5020127;28;20064;-75
2023/06/07 09:07:07;;;;;;;3.20;2.90;;;;;;;;;;5012140;28;20448;-75
2023/06/07 09:09:34;;;;;;;3.90;2.75;;;;;;;;;;5019545;28;20060;-74
2023/06/07 09:12:00;;;;;;;8.38;2.97;;;;;;;;;;5020699;28;20041;-74
2023/06/07 09:14:28;;;;;;;3.80;2.63;;;;;;;;;;5020014;28;20546;-76
2023/06/07 09:16:57;;;;;;;5.95;3.08;;;;;;;;;;5020906;28;20053;-73
2023/06/07 09:19:36;;;;;;;6.68;2.83;;;;;;;;;;5020697;28;20045;-73
2023/06/07 09:22:13;;;;;;;2.80;2.53;;;;;;;;;;5019322;28;20041;-73
2023/06/07 09:24:40;;;;;;;4.00;2.55;;;;;;;;;;5019641;28;20055;-74
2023/06/07 09:27:08;;;;;;;3.65;2.63;;;;;;;;;;5020821;28;20106;-74
2023/06/07 09:29:43;;;;;;;2.83;2.53;;;;;;;;;;5019752;28;20049;-73
2023/06/07 09:32:18;;;;;;;6.22;2.50;;;;;;;;;;5020609;28;20391;-77
2023/06/07 09:34:44;;;;;;;2.35;2.15;;;;;;;;;;5033605;28;20114;-73
2023/06/07 09:37:09;;;;;;;3.95;2.80;;;;;;;;;;5019280;28;20800;-73
2023/06/07 09:39:37;;;;;;;3.17;2.50;;;;;;;;;;5018593;28;20140;-74
2023/06/07 09:42:13;;;;;;;2.60;2.10;;;;;;;;;;5020519;28;20045;-75
2023/06/07 09:44:39;;;;;;;3.97;2.63;;;;;;;;;;5020217;28;20049;-74
2023/06/07 09:47:05;;;;;;;7.28;2.72;;;;;;;;;;5019897;28;20136;-74
2023/06/07 09:49:34;;;;;;;3.38;2.80;;;;;;;;;;5020090;28;20046;-73
2023/06/07 09:52:01;;;;;;;2.97;2.67;;;;;;;;;;5018884;28;20065;-76
2023/06/07 09:54:39;;;;;;;2.50;2.30;;;;;;;;;;5018061;28;20053;-76
2023/06/07 09:57:10;;;;;;;3.47;2.63;;;;;;;;;;5019459;28;20461;-73
2023/06/07 09:59:37;;;;;;;3.40;2.53;;;;;;;;;;5020082;28;20049;-76
2023/06/07 10:02:23;;;;;;;2.60;2.40;;;;;;;;;;5020080;28;20052;-74
2023/06/07 10:04:49;;;;;;;5.60;2.60;;;;;;;;;;5001052;28;20054;-74
2023/06/07 10:07:15;;;;;;;3.47;2.50;;;;;;;;;;5019755;28;20457;-73
2023/06/07 10:09:42;;;;;;;3.03;2.33;;;;;;;;;;5019117;28;20490;-74
2023/06/07 10:12:10;;;;;;;2.42;2.20;;;;;;;;;;5020364;28;20627;-75
2023/06/07 10:14:37;;;;;;;5.85;2.55;;;;;;;;;;5019883;28;20053;-74
2023/06/07 10:17:10;;;;;;;5.90;3.03;;;;;;;;;;5019074;28;20045;-75
2023/06/07 10:19:51;;;;;;;4.43;2.65;;;;;;;;;;5019384;28;20056;-74
2023/06/07 10:22:21;;;;;;;5.25;2.47;;;;;;;;;;5034833;28;20425;-76
2023/06/07 10:24:59;;;;;;;3.42;2.70;;;;;;;;;;5018637;28;20057;-74
2023/06/07 10:27:28;;;;;;;2.88;2.58;;;;;;;;;;5020386;28;20037;-73
2023/06/07 10:30:02;;;;;;;4.28;2.83;;;;;;;;;;5019030;28;20099;-73
2023/06/07 10:32:33;;;;;;;5.28;3.05;;;;;;;;;;5017982;28;20128;-76
2023/06/07 10:35:00;;;;;;;3.38;2.40;;;;;;;;;;5035265;28;20295;-73
2023/06/07 10:37:30;;;;;;;2.60;2.40;;;;;;;;;;5020330;28;20597;-75
2023/06/07 10:39:57;;;;;;;3.20;2.90;;;;;;;;;;5019671;28;20061;-73
2023/06/07 10:42:24;;;;;;;3.45;2.65;;;;;;;;;;5018513;28;20068;-74
2023/06/07 10:44:50;;;;;;;3.00;2.70;;;;;;;;;;5019780;28;20045;-74
2023/06/07 10:47:21;;;;;;;4.30;2.78;;;;;;;;;;5020186;28;20087;-75
2023/06/07 10:49:47;;;;;;;2.92;2.63;;;;;;;;;;5019647;28;20041;-75
2023/06/07 10:52:15;;;;;;;4.57;3.15;;;;;;;;;;5018041;28;20107;-74
2023/06/07 10:54:41;;;;;;;4.93;2.95;;;;;;;;;;5019372;28;20215;-72
2023/06/07 10:57:07;;;;;;;7.72;2.65;;;;;;;;;;5019810;28;20106;-73
2023/06/07 10:59:34;;;;;;;2.88;2.67;;;;;;;;;;5019681;28;20654;-74
2023/06/07 11:02:18;;;;;;;4.72;2.55;;;;;;;;;;5021149;28;20052;-76
2023/06/07 11:04:50;;;;;;;3.97;2.58;;;;;;;;;;5022779;28;20088;-74
2023/06/07 11:07:22;;;;;;;2.58;2.35;;;;;;;;;;5023950;28;20048;-73
2023/06/07 11:10:07;;;;;;;2.80;2.50;;;;;;;;;;5023266;28;20067;-75
2023/06/07 11:12:36;;;;;;;3.55;2.40;;;;;;;;;;5022582;28;20144;-72
2023/06/07 11:15:16;;;;;;;2.67;2.22;;;;;;;;;;5022326;28;20568;-72
2023/06/07 11:18:03;;;;;;;2.90;2.60;;;;;;;;;;5021614;28;20546;-73
2023/06/07 11:20:38;;;;;;;4.53;2.70;;;;;;;;;;5021155;28;20053;-75
2023/06/07 11:23:22;;;;;;;3.15;2.70;;;;;;;;;;5022960;28;20128;-75
2023/06/07 11:26:11;;;;;;;3.10;2.70;;;;;;;;;;5020352;28;20049;-72
2023/06/07 11:28:41;;;;;;;14.55;3.25;;;;;;;;;;5022218;28;20081;-75
2023/06/07 11:31:11;;;;;;;2.92;2.72;;;;;;;;;;5013085;28;20130;-75
2023/06/07 11:33:37;;;;;;;5.80;2.78;;;;;;;;;;5021394;28;20053;-76
2023/06/07 11:36:05;;;;;;;2.95;2.30;;;;;;;;;;5022472;28;20056;-76
2023/06/07 11:38:32;;;;;;;3.58;2.60;;;;;;;;;;5022249;28;20621;-74
2023/06/07 11:40:57;;;;;;;3.13;2.83;;;;;;;;;;5022862;28;20064;-73
2023/06/07 11:43:25;;;;;;;4.90;2.55;;;;;;;;;;5023000;28;20049;-74
2023/06/07 11:45:54;;;;;;;3.85;2.53;;;;;;;;;;5021550;28;20057;-75
2023/06/07 11:48:20;;;;;;;3.35;2.42;;;;;;;;;;5021144;28;20077;-73
2023/06/07 11:50:47;;;;;;;7.13;2.78;;;;;;;;;;5022279;28;20395;-73
2023/06/07 11:53:15;;;;;;;2.92;2.70;;;;;;;;;;5021110;28;20398;-73
2023/06/07 11:55:41;;;;;;;4.30;2.70;;;;;;;;;;5022816;28;20505;-72
2023/06/07 11:58:07;;;;;;;4.90;2.80;;;;;;;;;;5021574;28;20489;-72
2023/06/07 12:00:35;;;;;;;8.05;2.72;;;;;;;;;;5021866;28;20049;-75
2023/06/07 12:03:02;;;;;;;4.15;2.65;;;;;;;;;;5022329;28;21539;-75
2023/06/07 12:05:31;;;;;;;5.22;2.38;;;;;;;;;;5022475;28;20562;-76
2023/06/07 12:08:09;;;;;;;3.15;2.75;;;;;;;;;;5020178;28;20064;-76
2023/06/07 12:10:38;;;;;;;4.50;2.80;;;;;;;;;;5021291;28;20176;-77
2023/06/07 12:13:14;;;;;;;3.85;3.13;;;;;;;;;;5021161;28;20617;-75
2023/06/07 12:15:47;;;;;;;3.50;2.75;;;;;;;;;;5022167;28;20057;-73
2023/06/07 12:18:20;;;;;;;4.47;2.80;;;;;;;;;;5012639;28;20043;-76
2023/06/07 12:20:47;;;;;;;3.00;2.70;;;;;;;;;;5019331;28;20519;-76
2023/06/07 12:23:14;;;;;;;5.90;2.70;;;;;;;;;;5020403;28;20140;-73
2023/06/07 12:25:41;;;;;;;2.92;2.47;;;;;;;;;;5021724;28;20041;-73
2023/06/07 12:28:09;;;;;;;4.65;3.03;;;;;;;;;;5021597;28;20502;-73
2023/06/07 12:30:37;;;;;;;3.30;3.00;;;;;;;;;;5019197;28;20156;-74
2023/06/07 12:33:03;;;;;;;2.92;2.72;;;;;;;;;;5021871;28;20049;-74
2023/06/07 12:35:38;;;;;;;4.38;2.60;;;;;;;;;;5021834;28;20053;-73
2023/06/07 12:38:07;;;;;;;3.25;2.95;;;;;;;;;;5021637;28;20073;-74
2023/06/07 12:40:33;;;;;;;4.13;2.90;;;;;;;;;;5021057;28;20115;-73
2023/06/07 12:42:59;;;;;;;3.22;2.88;;;;;;;;;;5020586;28;20052;-75
2023/06/07 12:45:24;;;;;;;3.20;2.80;;;;;;;;;;5021367;28;20073;-73
2023/06/07 12:47:50;;;;;;;5.05;2.88;;;;;;;;;;5021032;28;20057;-75
2023/06/07 12:50:15;;;;;;;3.50;2.90;;;;;;;;;;5002930;28;20548;-75
2023/06/07 12:52:42;;;;;;;5.38;2.92;;;;;;;;;;5020653;28;20824;-76
2023/06/07 12:55:07;;;;;;;2.63;2.42;;;;;;;;;;5021262;28;20041;-76
2023/06/07 12:57:33;;;;;;;3.03;2.55;;;;;;;;;;5021515;28;20057;-73
2023/06/07 12:59:58;;;;;;;4.85;2.67;;;;;;;;;;5019178;28;20071;-74
2023/06/07 13:02:24;;;;;;;3.53;3.22;;;;;;;;;;5019346;28;20038;-73
2023/06/07 13:04:49;;;;;;;3.80;2.85;;;;;;;;;;5035256;28;20053;-73
2023/06/07 13:07:14;;;;;;;2.72;2.53;;;;;;;;;;5020108;28;20053;-75
2023/06/07 13:09:40;;;;;;;3.72;2.50;;;;;;;;;;5020606;28;20060;-73
2023/06/07 13:12:07;;;;;;;3.20;2.90;;;;;;;;;;5019860;28;20054;-72
2023/06/07 13:14:32;;;;;;;4.05;2.63;;;;;;;;;;5019602;28;20049;-73
2023/06/07 13:16:58;;;;;;;3.58;2.60;;;;;;;;;;5020566;28;20814;-74
2023/06/07 13:19:23;;;;;;;5.60;2.83;;;;;;;;;;5020683;28;20091;-73
2023/06/07 13:21:49;;;;;;;2.92;2.63;;;;;;;;;;5021127;28;20053;-73
2023/06/07 13:24:15;;;;;;;2.92;2.63;;;;;;;;;;5020186;28;20045;-75
2023/06/07 13:26:40;;;;;;;3.10;2.80;;;;;;;;;;5018062;28;20421;-74
2023/06/07 13:29:06;;;;;;;8.40;2.85;;;;;;;;;;5019126;28;20061;-74
2023/06/07 13:31:32;;;;;;;5.97;2.60;;;;;;;;;;5020570;28;20088;-75
2023/06/07 13:33:57;;;;;;;5.28;2.50;;;;;;;;;;5020952;28;20214;-73
2023/06/07 13:36:23;;;;;;;3.78;2.65;;;;;;;;;;5034513;28;20075;-73
2023/06/07 13:38:49;;;;;;;6.28;2.70;;;;;;;;;;5020426;28;20152;-76
2023/06/07 13:41:14;;;;;;;4.18;3.03;;;;;;;;;;5002776;28;20615;-74
2023/06/07 13:43:40;;;;;;;4.75;3.00;;;;;;;;;;5019384;28;20050;-73
2023/06/07 13:46:06;;;;;;;3.65;2.88;;;;;;;;;;5018986;28;20049;-76
2023/06/07 13:48:32;;;;;;;3.05;2.78;;;;;;;;;;5019304;28;20470;-74
2023/06/07 13:50:58;;;;;;;6.03;2.65;;;;;;;;;;5020180;28;20052;-74
2023/06/07 13:53:23;;;;;;;4.13;2.58;;;;;;;;;;5019291;28;20049;-75
2023/06/07 13:55:49;;;;;;;3.28;2.85;;;;;;;;;;5019134;28;20121;-73
2023/06/07 13:58:16;;;;;;;7.90;3.15;;;;;;;;;;5017210;28;20053;-76
2023/06/07 14:00:42;;;;;;;6.07;2.83;;;;;;;;;;5020145;28;20559;-76
2023/06/07 14:03:08;;;;;;;5.13;2.80;;;;;;;;;;5019186;28;20048;-73
2023/06/07 14:05:34;;;;;;;4.22;2.58;;;;;;;;;;5020356;28;20053;-73
2023/06/07 14:08:01;;;;;;;3.72;2.63;;;;;;;;;;5001716;28;20049;-74
2023/06/07 14:10:28;;;;;;;3.45;2.78;;;;;;;;;;5018929;28;20441;-73
2023/06/07 14:12:54;;;;;;;5.05;3.00;;;;;;;;;;5019228;28;20099;-76
2023/06/07 14:15:20;;;;;;;4.97;3.08;;;;;;;;;;5022298;28;20041;-74
2023/06/07 14:17:45;;;;;;;8.32;2.97;;;;;;;;;;5020659;28;20399;-71
2023/06/07 14:20:11;;;;;;;5.32;2.67;;;;;;;;;;5019945;28;20057;-76
2023/06/07 14:22:36;;;;;;;2.65;2.45;;;;;;;;;;5018302;28;20733;-73
2023/06/07 14:25:02;;;;;;;5.30;2.83;;;;;;;;;;5020145;28;20049;-73
2023/06/07 14:27:27;;;;;;;3.08;2.78;;;;;;;;;;5020148;28;20614;-70
2023/06/07 14:29:53;;;;;;;4.70;2.67;;;;;;;;;;5019851;28;20049;-72
2023/06/07 14:32:18;;;;;;;4.75;2.97;;;;;;;;;;5019039;28;20502;-72
2023/06/07 14:34:44;;;;;;;3.55;2.70;;;;;;;;;;5019908;28;20410;-71
2023/06/07 14:37:09;;;;;;;3.33;2.90;;;;;;;;;;5021700;28;20128;-71
2023/06/07 14:39:34;;;;;;;4.57;2.92;;;;;;;;;;5024463;28;20064;-72
2023/06/07 14:42:00;;;;;;;4.03;2.75;;;;;;;;;;5025410;28;20500;-71
2023/06/07 14:44:25;;;;;;;4.47;2.95;;;;;;;;;;5022880;28;20132;-72